createdAt,value
2022-10-30T00:00:47.030Z,100888.63
2022-10-30T00:03:14.815Z,100883.38
2022-10-30T00:05:45.873Z,100883.84
2022-10-30T00:08:14.300Z,100880.88
2022-10-30T00:10:41.373Z,100876.72
2022-10-30T00:13:08.264Z,100876.66
2022-10-30T00:15:34.970Z,100883.00
2022-10-30T00:18:04.415Z,100880.91
2022-10-30T00:20:31.001Z,100878.38
2022-10-30T00:22:57.520Z,100882.38
2022-10-30T00:25:26.696Z,100877.16
2022-10-30T00:27:53.134Z,100879.22
2022-10-30T00:30:19.715Z,100879.22
2022-10-30T00:32:46.160Z,100889.16
2022-10-30T00:35:12.712Z,100892.53
2022-10-30T00:37:39.291Z,100891.44
2022-10-30T00:40:06.889Z,100890.38
2022-10-30T00:42:33.308Z,100887.03
2022-10-30T00:44:59.772Z,100881.09
2022-10-30T00:47:36.705Z,100879.91
2022-10-30T00:50:05.977Z,100870.41
2022-10-30T00:52:42.790Z,100866.38
2022-10-30T00:55:13.892Z,100861.31
2022-10-30T00:57:41.396Z,100864.91
2022-10-30T01:00:10.891Z,100867.22
2022-10-30T01:02:43.765Z,100864.91
2022-10-30T01:05:15.706Z,100866.19
2022-10-30T01:07:42.093Z,100863.63
2022-10-30T01:10:09.166Z,100854.75
2022-10-30T01:12:36.694Z,100861.72
2022-10-30T01:15:03.513Z,100855.34
2022-10-30T01:17:41.803Z,100851.31
2022-10-30T01:20:19.381Z,100856.38
2022-10-30T01:22:58.968Z,100858.69
2022-10-30T01:25:36.412Z,100850.44
2022-10-30T01:28:40.325Z,100855.69
2022-10-30T01:31:36.535Z,100858.41
2022-10-30T01:34:19.859Z,100849.72
2022-10-30T01:36:50.463Z,100860.44
2022-10-30T01:39:29.614Z,100860.22
2022-10-30T01:41:55.989Z,100848.56
2022-10-30T01:44:33.456Z,100847.66
2022-10-30T01:47:43.569Z,100851.66
2022-10-30T01:50:34.356Z,100850.59
2022-10-30T01:53:35.554Z,100848.47
2022-10-30T01:56:04.738Z,100848.03
2022-10-30T01:58:51.253Z,100844.63
2022-10-30T02:01:21.085Z,100838.69
2022-10-30T02:03:47.882Z,100842.88
2022-10-30T02:06:14.372Z,100849.03
2022-10-30T02:08:41.020Z,100853.41
2022-10-30T02:11:10.567Z,100842.41
2022-10-30T02:13:38.066Z,100849.16
2022-10-30T02:16:09.878Z,100840.66
2022-10-30T02:18:36.397Z,100827.94
2022-10-30T02:21:03.089Z,100831.75
2022-10-30T02:23:29.532Z,100834.28
2022-10-30T02:25:58.327Z,100835.66
2022-10-30T02:28:24.700Z,100839.19
2022-10-30T02:30:51.140Z,100835.84
2022-10-30T02:33:19.897Z,100837.47
2022-10-30T02:35:46.289Z,100845.13
2022-10-30T02:38:12.738Z,100836.97
2022-10-30T02:40:39.223Z,100842.19
2022-10-30T02:43:05.628Z,100839.06
2022-10-30T02:45:32.027Z,100844.00
2022-10-30T02:48:03.998Z,100838.50
2022-10-30T02:50:30.497Z,100835.75
2022-10-30T02:52:59.271Z,100849.28
2022-10-30T02:55:25.991Z,100839.25
2022-10-30T02:57:52.337Z,100844.88
2022-10-30T03:00:18.805Z,100847.94
2022-10-30T03:02:45.206Z,100844.06
2022-10-30T03:05:11.683Z,100842.97
2022-10-30T03:07:43.387Z,100839.97
2022-10-30T03:10:09.759Z,100835.91
2022-10-30T03:12:36.145Z,100838.88
2022-10-30T03:15:03.399Z,100844.59
2022-10-30T03:17:32.643Z,100838.50
2022-10-30T03:19:59.099Z,100837.56
2022-10-30T03:22:28.076Z,100840.03
2022-10-30T03:24:54.452Z,100840.88
2022-10-30T03:27:20.846Z,100839.56
2022-10-30T03:29:47.694Z,100844.19
2022-10-30T03:32:14.177Z,100841.16
2022-10-30T03:34:40.691Z,100844.97
2022-10-30T03:37:07.106Z,100838.81
2022-10-30T03:39:33.551Z,100849.50
2022-10-30T03:41:59.968Z,100842.97
2022-10-30T03:44:26.428Z,100851.09
2022-10-30T03:46:52.850Z,100850.25
2022-10-30T03:49:21.366Z,100841.09
2022-10-30T03:51:50.566Z,100848.38
2022-10-30T03:54:17.022Z,100841.50
2022-10-30T03:56:45.099Z,100847.03
2022-10-30T03:59:14.040Z,100844.63
2022-10-30T04:01:40.603Z,100843.19
2022-10-30T04:04:07.240Z,100837.44
2022-10-30T04:06:34.947Z,100837.91
2022-10-30T04:09:01.357Z,100835.09
2022-10-30T04:11:30.296Z,100839.50
2022-10-30T04:13:56.741Z,100839.16
2022-10-30T04:16:23.204Z,100845.94
2022-10-30T04:18:49.707Z,100834.59
2022-10-30T04:21:16.849Z,100843.47
2022-10-30T04:23:45.741Z,100838.91
2022-10-30T04:26:12.717Z,100836.47
2022-10-30T04:28:39.164Z,100843.56
2022-10-30T04:31:05.862Z,100842.31
2022-10-30T04:33:32.271Z,100843.66
2022-10-30T04:36:00.139Z,100846.63
2022-10-30T04:38:26.543Z,100847.31
2022-10-30T04:40:53.070Z,100836.06
2022-10-30T04:43:19.918Z,100845.22
2022-10-30T04:45:46.338Z,100848.06
2022-10-30T04:48:15.593Z,100853.88
2022-10-30T04:50:43.335Z,100844.59
2022-10-30T04:53:18.446Z,100849.72
2022-10-30T04:55:45.996Z,100841.34
2022-10-30T04:58:13.316Z,100833.88
2022-10-30T05:00:39.944Z,100840.16
2022-10-30T05:03:06.392Z,100841.88
2022-10-30T05:05:33.420Z,100833.88
2022-10-30T05:08:00.416Z,100836.78
2022-10-30T05:10:28.447Z,100822.47
2022-10-30T05:12:59.954Z,100832.34
2022-10-30T05:15:26.351Z,100831.88
2022-10-30T05:17:56.530Z,100836.72
2022-10-30T05:20:23.110Z,100837.56
2022-10-30T05:23:01.869Z,100843.78
2022-10-30T05:25:29.257Z,100837.84
2022-10-30T05:28:04.061Z,100834.94
2022-10-30T05:30:34.702Z,100837.47
2022-10-30T05:33:03.116Z,100830.44
2022-10-30T05:35:32.670Z,100827.22
2022-10-30T05:38:00.409Z,100835.22
2022-10-30T05:40:27.056Z,100837.88
2022-10-30T05:42:53.862Z,100840.22
2022-10-30T05:45:20.809Z,100839.78
2022-10-30T05:48:04.576Z,100845.06
2022-10-30T05:50:33.932Z,100848.94
2022-10-30T05:53:03.206Z,100841.78
2022-10-30T05:55:29.859Z,100844.69
2022-10-30T05:58:03.986Z,100839.78
2022-10-30T06:00:35.184Z,100836.13
2022-10-30T06:03:05.883Z,100845.34
2022-10-30T06:05:34.502Z,100846.13
2022-10-30T06:08:00.942Z,100846.13
2022-10-30T06:10:28.065Z,100846.69
2022-10-30T06:12:56.223Z,100850.19
2022-10-30T06:15:23.983Z,100850.75
2022-10-30T06:17:50.673Z,100851.13
2022-10-30T06:20:18.949Z,100864.78
2022-10-30T06:22:59.580Z,100861.75
2022-10-30T06:25:27.337Z,100859.59
2022-10-30T06:27:53.776Z,100864.94
2022-10-30T06:30:21.405Z,100865.97
2022-10-30T06:32:52.439Z,100866.84
2022-10-30T06:35:18.888Z,100865.72
2022-10-30T06:37:53.577Z,100866.56
2022-10-30T06:40:20.521Z,100860.78
2022-10-30T06:42:51.007Z,100869.00
2022-10-30T06:45:20.296Z,100873.06
2022-10-30T06:47:46.941Z,100863.25
2022-10-30T06:50:22.272Z,100865.44
2022-10-30T06:52:49.482Z,100866.56
2022-10-30T06:55:16.155Z,100868.66
2022-10-30T06:57:43.076Z,100861.28
2022-10-30T07:00:10.183Z,100870.66
2022-10-30T07:02:39.048Z,100864.41
2022-10-30T07:05:06.229Z,100868.53
2022-10-30T07:07:33.260Z,100877.94
2022-10-30T07:10:02.269Z,100873.88
2022-10-30T07:12:29.003Z,100879.56
2022-10-30T07:14:55.402Z,100880.97
2022-10-30T07:17:21.769Z,100877.75
2022-10-30T07:19:53.140Z,100872.75
2022-10-30T07:22:19.727Z,100874.31
2022-10-30T07:24:46.063Z,100871.22
2022-10-30T07:27:12.571Z,100879.31
2022-10-30T07:29:38.998Z,100880.28
2022-10-30T07:32:05.415Z,100876.19
2022-10-30T07:34:33.349Z,100877.66
2022-10-30T07:36:59.777Z,100881.81
2022-10-30T07:39:26.130Z,100878.09
2022-10-30T07:41:52.529Z,100880.53
2022-10-30T07:44:18.968Z,100884.78
2022-10-30T07:46:45.374Z,100891.75
2022-10-30T07:49:11.807Z,100893.38
2022-10-30T07:51:38.154Z,100887.38
2022-10-30T07:54:04.616Z,100885.53
2022-10-30T07:56:31.487Z,100889.78
2022-10-30T07:59:00.934Z,100882.09
2022-10-30T08:01:27.388Z,100878.50
2022-10-30T08:03:53.912Z,100888.94
2022-10-30T08:06:26.259Z,100883.94
2022-10-30T08:08:53.748Z,100883.78
2022-10-30T08:11:20.158Z,100880.44
2022-10-30T08:13:46.905Z,100884.91
2022-10-30T08:16:17.258Z,100885.16
2022-10-30T08:18:46.265Z,100884.75
2022-10-30T08:21:12.736Z,100887.94
2022-10-30T08:23:39.159Z,100894.78
2022-10-30T08:26:05.907Z,100894.34
2022-10-30T08:28:37.301Z,100892.25
2022-10-30T08:31:05.817Z,100891.63
2022-10-30T08:33:32.681Z,100890.13
2022-10-30T08:36:03.379Z,100884.66
2022-10-30T08:38:29.904Z,100896.91
2022-10-30T08:40:56.999Z,100888.25
2022-10-30T08:43:26.591Z,100892.44
2022-10-30T08:45:57.261Z,100900.72
2022-10-30T08:48:25.763Z,100886.53
2022-10-30T08:50:52.286Z,100886.50
2022-10-30T08:53:20.972Z,100878.91
2022-10-30T08:55:53.320Z,100887.97
2022-10-30T08:58:19.719Z,100884.50
2022-10-30T09:00:46.145Z,100880.25
2022-10-30T09:03:15.001Z,100885.50
2022-10-30T09:05:41.439Z,100870.91
2022-10-30T09:08:07.963Z,100878.47
2022-10-30T09:10:34.332Z,100864.69
2022-10-30T09:13:05.594Z,100875.88
2022-10-30T09:15:32.898Z,100875.78
2022-10-30T09:18:01.746Z,100891.41
2022-10-30T09:20:29.129Z,100884.22
2022-10-30T09:22:58.564Z,100892.38
2022-10-30T09:25:28.386Z,100889.22
2022-10-30T09:27:54.746Z,100896.78
2022-10-30T09:30:21.594Z,100888.50
2022-10-30T09:33:02.673Z,100886.53
2022-10-30T09:35:29.895Z,100896.06
2022-10-30T09:37:57.336Z,100889.22
2022-10-30T09:40:40.094Z,100893.16
2022-10-30T09:43:27.671Z,100890.59
2022-10-30T09:46:34.752Z,100905.78
2022-10-30T09:49:10.825Z,100901.69
2022-10-30T09:52:11.362Z,100911.25
2022-10-30T09:54:43.785Z,100910.16
2022-10-30T09:57:37.807Z,100916.09
2022-10-30T10:00:13.481Z,100898.25
2022-10-30T10:03:16.587Z,100906.13
2022-10-30T10:05:51.569Z,100902.38
2022-10-30T10:08:44.235Z,100915.25
2022-10-30T10:11:20.610Z,100916.13
2022-10-30T10:14:17.315Z,100907.16
2022-10-30T10:16:48.651Z,100904.78
2022-10-30T10:19:28.404Z,100912.13
2022-10-30T10:22:00.578Z,100909.06
2022-10-30T10:24:37.934Z,100916.50
2022-10-30T10:27:22.482Z,100905.63
2022-10-30T10:30:03.464Z,100900.22
2022-10-30T10:32:32.706Z,100904.59
2022-10-30T10:35:07.604Z,100893.16
2022-10-30T10:38:00.463Z,100904.16
2022-10-30T10:40:30.613Z,100895.16
2022-10-30T10:43:12.947Z,100913.50
2022-10-30T10:45:50.099Z,100900.16
2022-10-30T10:48:46.909Z,100908.91
2022-10-30T10:51:27.626Z,100897.00
2022-10-30T10:54:05.650Z,100900.72
2022-10-30T10:56:37.065Z,100884.59
2022-10-30T10:59:13.078Z,100894.50
2022-10-30T11:01:43.363Z,100894.81
2022-10-30T11:04:34.594Z,100904.31
2022-10-30T11:07:10.879Z,100882.56
2022-10-30T11:09:39.543Z,100887.56
2022-10-30T11:12:06.022Z,100873.13
2022-10-30T11:14:35.392Z,100876.75
2022-10-30T11:17:21.521Z,100878.91
2022-10-30T11:19:58.274Z,100874.13
2022-10-30T11:22:32.342Z,100868.59
2022-10-30T11:25:26.813Z,100876.25
2022-10-30T11:28:00.420Z,100877.63
2022-10-30T11:30:31.208Z,100854.16
2022-10-30T11:32:59.356Z,100859.47
2022-10-30T11:35:26.580Z,100879.56
2022-10-30T11:38:13.878Z,100878.50
2022-10-30T11:40:47.013Z,100876.69
2022-10-30T11:43:20.095Z,100875.84
2022-10-30T11:45:47.085Z,100869.72
2022-10-30T11:48:31.654Z,100874.41
2022-10-30T11:51:04.653Z,100883.59
2022-10-30T11:53:39.613Z,100877.47
2022-10-30T11:56:18.814Z,100872.06
2022-10-30T11:58:49.691Z,100860.72
2022-10-30T12:01:26.672Z,100852.66
2022-10-30T12:03:54.797Z,100868.78
2022-10-30T12:06:25.133Z,100865.41
2022-10-30T12:08:59.113Z,100859.50
2022-10-30T12:11:31.862Z,100871.28
2022-10-30T12:14:01.774Z,100860.00
2022-10-30T12:16:28.748Z,100871.78
2022-10-30T12:19:05.347Z,100853.47
2022-10-30T12:21:40.582Z,100837.44
2022-10-30T12:24:16.261Z,100851.16
2022-10-30T12:26:50.524Z,100846.97
2022-10-30T12:29:20.516Z,100869.22
2022-10-30T12:31:51.063Z,100859.84
2022-10-30T12:34:23.364Z,100837.31
2022-10-30T12:37:00.274Z,100852.28
2022-10-30T12:39:53.453Z,100828.53
2022-10-30T12:42:23.055Z,100830.81
2022-10-30T12:45:00.979Z,100830.22
2022-10-30T12:47:31.228Z,100826.13
2022-10-30T12:52:41.795Z,100807.53
2022-10-30T12:55:34.807Z,100788.91
2022-10-30T12:58:22.579Z,100793.81
2022-10-30T13:01:24.902Z,100805.19
2022-10-30T13:03:58.447Z,100804.69
2022-10-30T13:06:29.384Z,100781.47
2022-10-30T13:09:36.382Z,100787.88
2022-10-30T13:12:14.828Z,100779.91
2022-10-30T13:14:52.713Z,100779.41
2022-10-30T13:17:20.700Z,100792.13
2022-10-30T13:19:47.473Z,100783.84
2022-10-30T13:22:30.576Z,100777.00
2022-10-30T13:25:09.127Z,100783.63
2022-10-30T13:27:57.013Z,100786.31
2022-10-30T13:30:30.664Z,100782.56
2022-10-30T13:33:18.663Z,100802.53
2022-10-30T13:36:17.399Z,100801.22
2022-10-30T13:39:17.587Z,100797.75
2022-10-30T13:41:58.621Z,100779.91
2022-10-30T13:44:42.736Z,100787.13
2022-10-30T13:47:31.870Z,100776.78
2022-10-30T13:50:10.375Z,100798.56
2022-10-30T13:52:40.655Z,100788.09
2022-10-30T13:55:10.310Z,100793.03
2022-10-30T13:57:46.504Z,100796.06
2022-10-30T14:00:23.736Z,100788.69
2022-10-30T14:03:28.121Z,100800.13
2022-10-30T14:06:12.577Z,100793.63
2022-10-30T14:08:48.677Z,100806.50
2022-10-30T14:11:15.139Z,100798.94
2022-10-30T14:13:56.492Z,100796.19
2022-10-30T14:16:41.053Z,100791.94
2022-10-30T14:19:15.008Z,100796.66
2022-10-30T14:21:54.280Z,100793.78
2022-10-30T14:24:31.065Z,100792.28
2022-10-30T14:27:03.299Z,100802.63
2022-10-30T14:29:35.802Z,100796.66
2022-10-30T14:32:23.613Z,100794.59
2022-10-30T14:34:49.984Z,100802.75
2022-10-30T14:37:23.732Z,100789.88
2022-10-30T14:39:51.596Z,100804.69
2022-10-30T14:42:30.354Z,100796.72
2022-10-30T14:44:59.931Z,100792.97
2022-10-30T14:47:54.910Z,100799.69
2022-10-30T14:50:27.571Z,100798.53
2022-10-30T14:53:21.449Z,100789.25
2022-10-30T14:56:11.703Z,100782.38
2022-10-30T14:58:38.984Z,100784.16
2022-10-30T15:01:33.681Z,100785.69
2022-10-30T15:04:50.739Z,100794.34
2022-10-30T15:07:46.281Z,100787.13
2022-10-30T15:10:24.709Z,100780.69
2022-10-30T15:13:24.287Z,100778.03
2022-10-30T15:16:08.999Z,100787.66
2022-10-30T15:18:35.513Z,100786.63
2022-10-30T15:21:07.863Z,100780.66
2022-10-30T15:23:36.691Z,100781.28
2022-10-30T15:26:09.514Z,100785.00
2022-10-30T15:28:38.152Z,100781.88
2022-10-30T15:31:08.427Z,100783.03
2022-10-30T15:33:38.260Z,100779.78
2022-10-30T15:36:15.525Z,100778.56
2022-10-30T15:38:41.889Z,100782.59
2022-10-30T15:41:11.853Z,100779.31
2022-10-30T15:43:43.033Z,100781.88
2022-10-30T15:46:10.826Z,100778.19
2022-10-30T15:48:47.758Z,100780.88
2022-10-30T15:51:24.006Z,100776.97
2022-10-30T15:53:59.923Z,100783.44
2022-10-30T15:56:28.491Z,100780.75
2022-10-30T15:59:06.703Z,100782.56
2022-10-30T16:01:39.251Z,100785.00
2022-10-30T16:04:15.862Z,100781.06
2022-10-30T16:06:52.930Z,100788.13
2022-10-30T16:09:20.219Z,100780.56
2022-10-30T16:11:48.296Z,100779.53
2022-10-30T16:14:18.581Z,100773.44
2022-10-30T16:16:45.796Z,100773.34
2022-10-30T16:19:29.104Z,100775.06
2022-10-30T16:22:00.995Z,100770.84
2022-10-30T16:24:34.185Z,100778.50
2022-10-30T16:27:19.567Z,100774.94
2022-10-30T16:29:48.587Z,100780.72
2022-10-30T16:32:21.039Z,100783.72
2022-10-30T16:34:49.749Z,100785.84
2022-10-30T16:37:28.804Z,100783.34
2022-10-30T16:40:02.384Z,100775.72
2022-10-30T16:42:29.110Z,100788.03
2022-10-30T16:45:24.798Z,100779.53
2022-10-30T16:48:00.904Z,100786.13
2022-10-30T16:50:36.615Z,100788.06
2022-10-30T16:53:08.670Z,100788.09
2022-10-30T16:55:38.485Z,100784.94
2022-10-30T16:58:05.129Z,100782.41
2022-10-30T17:00:36.207Z,100793.22
2022-10-30T17:03:10.274Z,100807.63
2022-10-30T17:05:38.339Z,100803.19
2022-10-30T17:08:10.200Z,100808.91
2022-10-30T17:10:59.227Z,100809.34
2022-10-30T17:13:52.408Z,100813.16
2022-10-30T17:16:25.575Z,100821.81
2022-10-30T17:18:54.542Z,100823.72
2022-10-30T17:21:38.831Z,100837.88
2022-10-30T17:24:05.978Z,100834.28
2022-10-30T17:26:39.009Z,100838.03
2022-10-30T17:29:06.742Z,100841.22
2022-10-30T17:31:35.975Z,100846.69
2022-10-30T17:34:15.707Z,100844.78
2022-10-30T17:36:42.787Z,100855.56
2022-10-30T17:39:09.546Z,100854.88
2022-10-30T17:41:36.376Z,100851.94
2022-10-30T17:44:03.101Z,100863.34
2022-10-30T17:46:29.489Z,100863.75
2022-10-30T17:48:59.252Z,100869.22
2022-10-30T17:51:26.354Z,100865.63
2022-10-30T17:53:53.500Z,100869.03
2022-10-30T17:56:24.834Z,100873.66
2022-10-30T17:58:51.305Z,100883.13
2022-10-30T18:01:24.479Z,100878.69
2022-10-30T18:03:53.257Z,100879.75
2022-10-30T18:06:22.319Z,100887.31
2022-10-30T18:08:50.822Z,100885.22
2022-10-30T18:11:20.099Z,100893.66
2022-10-30T18:13:47.801Z,100893.22
2022-10-30T18:16:15.585Z,100888.75
2022-10-30T18:18:43.562Z,100896.34
2022-10-30T18:21:14.118Z,100900.81
2022-10-30T18:23:55.951Z,100909.00
2022-10-30T18:26:25.027Z,100910.06
2022-10-30T18:28:54.473Z,100907.47
2022-10-30T18:31:23.266Z,100916.72
2022-10-30T18:33:49.723Z,100911.41
2022-10-30T18:36:21.654Z,100915.50
2022-10-30T18:38:48.816Z,100912.88
2022-10-30T18:41:18.166Z,100927.81
2022-10-30T18:43:46.884Z,100929.34
2022-10-30T18:46:15.140Z,100927.31
2022-10-30T18:48:41.597Z,100918.41
2022-10-30T18:51:16.574Z,100922.56
2022-10-30T18:53:51.457Z,100917.47
2022-10-30T18:56:29.431Z,100923.56
2022-10-30T18:59:01.711Z,100923.31
2022-10-30T19:01:32.227Z,100924.16
2022-10-30T19:04:03.985Z,100929.38
2022-10-30T19:06:30.885Z,100938.19
2022-10-30T19:08:57.329Z,100939.22
2022-10-30T19:11:29.169Z,100929.91
2022-10-30T19:13:57.498Z,100933.44
2022-10-30T19:16:25.246Z,100935.34
2022-10-30T19:18:51.951Z,100934.41
2022-10-30T19:21:28.067Z,100928.03
2022-10-30T19:23:58.655Z,100930.31
2022-10-30T19:26:25.078Z,100939.81
2022-10-30T19:28:51.549Z,100940.59
2022-10-30T19:31:19.544Z,100935.03
2022-10-30T19:33:51.281Z,100935.81
2022-10-30T19:36:37.246Z,100942.16
2022-10-30T19:39:15.720Z,100936.13
2022-10-30T19:41:45.218Z,100943.72
2022-10-30T19:44:11.704Z,100944.09
2022-10-30T19:46:38.080Z,100937.31
2022-10-30T19:49:19.851Z,100942.91
2022-10-30T19:51:49.546Z,100946.31
2022-10-30T19:54:16.057Z,100948.09
2022-10-30T19:56:43.982Z,100948.91
2022-10-30T19:59:12.998Z,100948.91
2022-10-30T20:01:41.391Z,100954.56
2022-10-30T20:04:08.208Z,100951.63
2022-10-30T20:06:37.323Z,100954.31
2022-10-30T20:09:05.352Z,100960.16
2022-10-30T20:11:32.189Z,100958.47
2022-10-30T20:13:58.667Z,100958.38
2022-10-30T20:16:25.077Z,100957.25
2022-10-30T20:18:51.640Z,100965.00
2022-10-30T20:21:19.592Z,100970.47
2022-10-30T20:23:46.122Z,100970.34
2022-10-30T20:26:21.913Z,100970.75
2022-10-30T20:28:48.656Z,100963.09
2022-10-30T20:31:15.558Z,100975.47
2022-10-30T20:33:41.981Z,100976.09
2022-10-30T20:36:11.396Z,100986.41
2022-10-30T20:38:37.995Z,100972.91
2022-10-30T20:41:05.342Z,100979.31
2022-10-30T20:43:37.574Z,100979.06
2022-10-30T20:46:09.620Z,100985.00
2022-10-30T20:48:36.246Z,100982.66
2022-10-30T20:51:02.915Z,100984.59
2022-10-30T20:53:30.849Z,100973.66
2022-10-30T20:55:57.628Z,100993.47
2022-10-30T20:58:24.545Z,100993.84
2022-10-30T21:00:54.290Z,100983.28
2022-10-30T21:03:22.952Z,100988.28
2022-10-30T21:05:55.927Z,100981.19
2022-10-30T21:08:22.891Z,100986.19
2022-10-30T21:10:49.336Z,100983.66
2022-10-30T21:13:16.256Z,100986.94
2022-10-30T21:15:44.358Z,100987.97
2022-10-30T21:18:13.931Z,100986.66
2022-10-30T21:20:41.418Z,100989.59
2022-10-30T21:23:10.335Z,100998.44
2022-10-30T21:25:36.878Z,101001.25
2022-10-30T21:28:03.514Z,100996.38
2022-10-30T21:30:30.821Z,101002.59
2022-10-30T21:32:59.381Z,101000.63
2022-10-30T21:35:26.283Z,100998.41
2022-10-30T21:37:52.762Z,101006.66
2022-10-30T21:40:19.136Z,101004.84
2022-10-30T21:42:48.750Z,101007.31
2022-10-30T21:45:15.208Z,101003.25
2022-10-30T21:47:41.591Z,101000.03
2022-10-30T21:50:12.127Z,100990.28
2022-10-30T21:52:39.579Z,101002.09
2022-10-30T21:55:08.694Z,100989.34
2022-10-30T21:57:35.546Z,100987.16
2022-10-30T22:00:05.734Z,100991.09
2022-10-30T22:02:33.859Z,101003.75
2022-10-30T22:05:00.336Z,101001.25
2022-10-30T22:07:26.691Z,101006.22
2022-10-30T22:09:53.578Z,100999.06
2022-10-30T22:12:20.436Z,101002.38
2022-10-30T22:14:46.817Z,101006.50
2022-10-30T22:17:15.681Z,101010.56
2022-10-30T22:19:44.689Z,100999.69
2022-10-30T22:22:13.255Z,100999.19
2022-10-30T22:24:40.480Z,101001.06
2022-10-30T22:27:06.877Z,101005.19
2022-10-30T22:29:33.285Z,101006.22
2022-10-30T22:32:02.455Z,100997.75
2022-10-30T22:34:32.304Z,101000.81
2022-10-30T22:37:01.503Z,101003.88
2022-10-30T22:39:28.025Z,101003.53
2022-10-30T22:41:54.900Z,100997.44
2022-10-30T22:44:23.805Z,100998.63
2022-10-30T22:46:52.790Z,100999.81
2022-10-30T22:49:19.898Z,101006.66
2022-10-30T22:51:46.291Z,101000.53
2022-10-30T22:54:13.045Z,100996.09
2022-10-30T22:56:40.349Z,100989.28
2022-10-30T22:59:10.858Z,101002.47
2022-10-30T23:01:38.592Z,101000.59
2022-10-30T23:04:06.956Z,100994.47
2022-10-30T23:06:37.439Z,101000.09
2022-10-30T23:09:07.536Z,100998.25
2022-10-30T23:11:34.483Z,100996.22
2022-10-30T23:14:00.968Z,100992.63
2022-10-30T23:16:27.850Z,100996.53
2022-10-30T23:18:56.454Z,100997.94
2022-10-30T23:21:28.898Z,100995.56
2022-10-30T23:23:56.121Z,101003.22
2022-10-30T23:26:28.616Z,100999.50
2022-10-30T23:28:57.035Z,100997.25
2022-10-30T23:31:26.540Z,100997.19
2022-10-30T23:33:55.584Z,100996.78
2022-10-30T23:36:25.143Z,100993.16
2022-10-30T23:38:55.987Z,100998.13
2022-10-30T23:41:23.915Z,100995.94
2022-10-30T23:43:55.055Z,100995.28
2022-10-30T23:46:21.603Z,100995.19
2022-10-30T23:48:48.078Z,100991.13
2022-10-30T23:51:14.706Z,101005.81
2022-10-30T23:53:41.090Z,100996.44
2022-10-30T23:56:07.891Z,100993.22
2022-10-30T23:58:34.802Z,100991.72
